Mare I — 3FIH6 — position and weather

sailwx.info

Track history (hours):
 
Tides and Currents Weather Stations Pressure Air Temp Water Temp Dewpoint Dewpoint Depression Visibility Wind Speed Wind Dir Waves Ship Positions

Mare I

Last reported at 2017-Sep-21 18:33 UTC. Time now 2017-Sep-25 08:20 UTC.
Position N 36°49' E 005°54'.

Length 111 m; draft 5.8 m.

Type: Cargo ship. MMSI: 357387000.

Date/timePositionNaut miles runAvg speedWind from/ knotsBaromVisibWave heightAir tempDewpointWater temp
2017-Sep-21 18:33N 36°49' E 005°54'  
2017-Sep-16 23:00N 37°12' E 012°15'510.9
2017-Sep-16 22:30N 37°10' E 012°21'510.2
2017-Sep-16 21:59N 37°09' E 012°27'510.0
2017-Sep-16 21:30N 37°07' E 012°33'5 9.9
2017-Sep-16 21:00N 37°06' E 012°39'5 9.7
2017-Sep-16 20:30N 37°05' E 012°45'5 9.4
2017-Sep-16 20:00N 37°03' E 012°51'5 9.6
2017-Sep-16 19:30N 37°02' E 012°56'5 9.8
2017-Sep-16 19:00N 37°01' E 013°03'5 9.9
2017-Sep-16 18:30N 36°60' E 013°09'510.0
2017-Sep-16 18:00N 36°59' E 013°15'510.0
2017-Sep-16 17:30N 36°57' E 013°21'5 9.7
2017-Sep-16 17:00N 36°56' E 013°26'5 9.6
2017-Sep-16 16:30N 36°55' E 013°32'6 9.4
2017-Sep-16 15:54N 36°53' E 013°39'4 9.4
2017-Sep-16 15:30N 36°52' E 013°44'5 9.1
2017-Sep-16 15:00N 36°51' E 013°49'5 9.2
2017-Sep-16 14:30N 36°50' E 013°55'5 9.5
2017-Sep-16 14:00N 36°48' E 014°00'5 9.4
2017-Sep-16 13:30N 36°47' E 014°06'5 9.5
2017-Sep-16 13:00N 36°46' E 014°12'5 9.9
2017-Sep-16 12:30N 36°45' E 014°18'510.6
2017-Sep-16 12:00N 36°43' E 014°24'510.4
2017-Sep-16 11:30N 36°42' E 014°30'510.2
2017-Sep-16 11:00N 36°41' E 014°37'510.0
2017-Sep-16 10:30N 36°40' E 014°43'510.1
2017-Sep-16 10:00N 36°39' E 014°49'510.1
2017-Sep-16 09:30N 36°38' E 014°55'510.7
2017-Sep-16 09:00N 36°37' E 015°02'511.0
2017-Sep-16 08:30N 36°36' E 015°08'1610.4
2017-Sep-16 06:58N 36°41' E 015°27'5 9.9
2017-Sep-16 06:30N 36°42' E 015°33'  
Track history (hours):
 
Tides and Currents Weather Stations Pressure Air Temp Water Temp Dewpoint Dewpoint Depression Visibility Wind Speed Wind Dir Waves Ship Positions

Mare I

Last reported at 2017-Sep-21 18:33 UTC. Time now 2017-Sep-25 08:20 UTC.
Position N 36°49' E 005°54'.

Length 111 m; draft 5.8 m.

Type: Cargo ship. MMSI: 357387000.

Date/timePositionNaut miles runAvg speedWind from/ knotsBaromVisibWave heightAir tempDewpointWater temp
2017-Sep-21 18:33N 36°49' E 005°54'  
2017-Sep-16 23:00N 37°12' E 012°15'510.9
2017-Sep-16 22:30N 37°10' E 012°21'510.2
2017-Sep-16 21:59N 37°09' E 012°27'510.0
2017-Sep-16 21:30N 37°07' E 012°33'5 9.9
2017-Sep-16 21:00N 37°06' E 012°39'5 9.7
2017-Sep-16 20:30N 37°05' E 012°45'5 9.4
2017-Sep-16 20:00N 37°03' E 012°51'5 9.6
2017-Sep-16 19:30N 37°02' E 012°56'5 9.8
2017-Sep-16 19:00N 37°01' E 013°03'5 9.9
2017-Sep-16 18:30N 36°60' E 013°09'510.0
2017-Sep-16 18:00N 36°59' E 013°15'510.0
2017-Sep-16 17:30N 36°57' E 013°21'5 9.7
2017-Sep-16 17:00N 36°56' E 013°26'5 9.6
2017-Sep-16 16:30N 36°55' E 013°32'6 9.4
2017-Sep-16 15:54N 36°53' E 013°39'4 9.4
2017-Sep-16 15:30N 36°52' E 013°44'5 9.1
2017-Sep-16 15:00N 36°51' E 013°49'5 9.2
2017-Sep-16 14:30N 36°50' E 013°55'5 9.5
2017-Sep-16 14:00N 36°48' E 014°00'5 9.4
2017-Sep-16 13:30N 36°47' E 014°06'5 9.5
2017-Sep-16 13:00N 36°46' E 014°12'5 9.9
2017-Sep-16 12:30N 36°45' E 014°18'510.6
2017-Sep-16 12:00N 36°43' E 014°24'510.4
2017-Sep-16 11:30N 36°42' E 014°30'510.2
2017-Sep-16 11:00N 36°41' E 014°37'510.0
2017-Sep-16 10:30N 36°40' E 014°43'510.1
2017-Sep-16 10:00N 36°39' E 014°49'510.1
2017-Sep-16 09:30N 36°38' E 014°55'510.7
2017-Sep-16 09:00N 36°37' E 015°02'511.0
2017-Sep-16 08:30N 36°36' E 015°08'1610.4
2017-Sep-16 06:58N 36°41' E 015°27'5 9.9
2017-Sep-16 06:30N 36°42' E 015°33'  

Dump ship's entire track history